createdAt,value
2022-10-14T00:01:20.645Z,13.30
2022-10-14T00:03:48.288Z,13.30
2022-10-14T00:06:20.608Z,13.30
2022-10-14T00:08:47.873Z,13.30
2022-10-14T00:11:19.008Z,13.30
2022-10-14T00:13:46.468Z,13.30
2022-10-14T00:16:26.374Z,13.30
2022-10-14T00:18:53.383Z,13.30
2022-10-14T00:21:20.929Z,13.30
2022-10-14T00:23:49.649Z,13.30
2022-10-14T00:26:31.824Z,13.30
2022-10-14T00:29:00.736Z,13.30
2022-10-14T00:31:32.059Z,13.30
2022-10-14T00:33:59.193Z,13.20
2022-10-14T00:36:27.730Z,13.30
2022-10-14T00:38:55.732Z,13.30
2022-10-14T00:41:31.971Z,13.30
2022-10-14T00:44:18.833Z,13.30
2022-10-14T00:46:50.423Z,13.30
2022-10-14T00:49:21.692Z,13.30
2022-10-14T00:52:16.457Z,13.30
2022-10-14T00:54:51.002Z,13.30
2022-10-14T00:57:18.511Z,13.30
2022-10-14T00:59:46.251Z,13.30
2022-10-14T01:02:13.667Z,13.30
2022-10-14T01:04:42.924Z,13.30
2022-10-14T01:07:34.014Z,13.20
2022-10-14T01:10:09.913Z,13.30
2022-10-14T01:12:52.440Z,13.20
2022-10-14T01:15:37.487Z,13.30
2022-10-14T01:18:41.669Z,13.30
2022-10-14T01:21:24.238Z,13.30
2022-10-14T01:24:13.734Z,13.30
2022-10-14T01:27:06.615Z,13.30
2022-10-14T01:29:42.712Z,13.30
2022-10-14T01:32:31.071Z,13.30
2022-10-14T01:35:06.922Z,13.20
2022-10-14T01:37:39.607Z,13.20
2022-10-14T01:40:13.808Z,13.20
2022-10-14T01:42:44.265Z,13.20
2022-10-14T01:45:18.092Z,13.30
2022-10-14T01:47:49.426Z,13.30
2022-10-14T01:50:19.891Z,13.30
2022-10-14T01:52:58.372Z,13.30
2022-10-14T01:55:30.475Z,13.30
2022-10-14T01:57:58.603Z,13.30
2022-10-14T02:00:25.803Z,13.30
2022-10-14T02:02:52.694Z,13.30
2022-10-14T02:05:39.318Z,13.30
2022-10-14T02:08:36.122Z,13.30
2022-10-14T02:11:12.545Z,13.30
2022-10-14T02:13:54.302Z,13.30
2022-10-14T02:16:34.032Z,13.30
2022-10-14T02:19:23.982Z,13.30
2022-10-14T02:22:14.565Z,13.30
2022-10-14T02:24:47.725Z,13.30
2022-10-14T02:27:18.643Z,13.30
2022-10-14T02:29:47.283Z,13.30
2022-10-14T02:32:19.594Z,13.30
2022-10-14T02:34:50.924Z,13.30
2022-10-14T02:37:20.023Z,13.30
2022-10-14T02:40:04.983Z,13.20
2022-10-14T02:42:32.171Z,13.30
2022-10-14T02:45:01.191Z,13.30
2022-10-14T02:47:28.776Z,13.30
2022-10-14T02:49:55.822Z,13.30
2022-10-14T02:52:24.854Z,13.30
2022-10-14T02:54:53.547Z,13.20
2022-10-14T02:57:20.405Z,13.20
2022-10-14T02:59:48.578Z,13.30
2022-10-14T03:02:17.247Z,13.30
2022-10-14T03:04:44.140Z,13.30
2022-10-14T03:07:11.546Z,13.30
2022-10-14T03:09:46.094Z,13.30
2022-10-14T03:12:13.395Z,13.30
2022-10-14T03:14:40.730Z,13.30
2022-10-14T03:17:12.228Z,13.30
2022-10-14T03:19:40.002Z,13.30
2022-10-14T03:22:08.152Z,13.30
2022-10-14T03:24:36.883Z,13.30
2022-10-14T03:27:33.489Z,13.30
2022-10-14T03:30:06.794Z,13.30
2022-10-14T03:32:37.245Z,13.30
2022-10-14T03:35:22.705Z,13.30
2022-10-14T03:37:54.885Z,13.30
2022-10-14T03:40:28.061Z,13.30
2022-10-14T03:42:58.594Z,13.30
2022-10-14T03:45:28.580Z,13.30
2022-10-14T03:47:56.951Z,13.40
2022-10-14T03:50:25.057Z,13.30
2022-10-14T03:52:55.887Z,13.30
2022-10-14T03:55:29.992Z,13.30
2022-10-14T03:57:57.711Z,13.40
2022-10-14T04:00:24.743Z,13.40
2022-10-14T04:03:03.955Z,13.40
2022-10-14T04:05:38.415Z,13.40
2022-10-14T04:08:11.693Z,13.40
2022-10-14T04:10:42.412Z,13.40
2022-10-14T04:13:12.431Z,13.40
2022-10-14T04:15:40.431Z,13.40
2022-10-14T04:18:20.545Z,13.40
2022-10-14T04:20:49.416Z,13.40
2022-10-14T04:23:19.474Z,13.40
2022-10-14T04:25:51.623Z,13.40
2022-10-14T04:28:18.674Z,13.40
2022-10-14T04:30:56.710Z,13.40
2022-10-14T04:33:28.660Z,13.40
2022-10-14T04:36:00.084Z,13.40
2022-10-14T04:38:33.470Z,13.40
2022-10-14T04:41:05.488Z,13.40
2022-10-14T04:43:35.057Z,13.40
2022-10-14T04:46:17.027Z,13.40
2022-10-14T04:48:44.068Z,13.40
2022-10-14T04:51:11.837Z,13.50
2022-10-14T04:53:48.560Z,13.50
2022-10-14T04:56:34.212Z,13.50
2022-10-14T04:59:04.878Z,13.50
2022-10-14T05:01:59.106Z,13.50
2022-10-14T05:04:35.862Z,13.50
2022-10-14T05:07:10.008Z,13.50
2022-10-14T05:09:37.918Z,13.50
2022-10-14T05:12:11.851Z,13.50
2022-10-14T05:14:46.641Z,13.50
2022-10-14T05:17:21.055Z,13.50
2022-10-14T05:19:48.510Z,13.50
2022-10-14T05:22:17.286Z,13.50
2022-10-14T05:24:46.055Z,13.50
2022-10-14T05:27:13.680Z,13.50
2022-10-14T05:29:41.645Z,13.60
2022-10-14T05:32:09.253Z,13.50
2022-10-14T05:34:43.615Z,13.50
2022-10-14T05:37:16.777Z,13.50
2022-10-14T05:39:50.631Z,13.50
2022-10-14T05:42:20.839Z,13.60
2022-10-14T05:44:49.675Z,13.60
2022-10-14T05:47:17.013Z,13.60
2022-10-14T05:49:49.916Z,13.60
2022-10-14T05:52:18.143Z,13.60
2022-10-14T05:54:45.723Z,13.60
2022-10-14T05:57:17.297Z,13.60
2022-10-14T05:59:44.447Z,13.60
2022-10-14T06:02:11.496Z,13.60
2022-10-14T06:04:41.061Z,13.60
2022-10-14T06:07:12.108Z,13.60
2022-10-14T06:09:39.353Z,13.60
2022-10-14T06:12:06.775Z,13.60
2022-10-14T06:14:33.903Z,13.60
2022-10-14T06:17:04.287Z,13.60
2022-10-14T06:19:34.647Z,13.60
2022-10-14T06:22:01.939Z,13.60
2022-10-14T06:24:28.899Z,13.70
2022-10-14T06:26:55.818Z,13.60
2022-10-14T06:29:26.316Z,13.70
2022-10-14T06:31:53.236Z,13.70
2022-10-14T06:34:23.054Z,13.70
2022-10-14T06:36:49.993Z,13.70
2022-10-14T06:39:16.858Z,13.70
2022-10-14T06:41:44.325Z,13.70
2022-10-14T06:44:19.251Z,13.70
2022-10-14T06:46:46.239Z,13.70
2022-10-14T06:49:13.653Z,13.70
2022-10-14T06:51:40.646Z,13.70
2022-10-14T06:54:08.152Z,13.70
2022-10-14T06:56:35.201Z,13.70
2022-10-14T06:59:02.457Z,13.80
2022-10-14T07:01:29.443Z,13.70
2022-10-14T07:06:58.654Z,13.80
2022-10-14T07:09:25.652Z,13.80
2022-10-14T07:11:52.552Z,13.80
2022-10-14T07:14:19.685Z,13.80
2022-10-14T07:16:46.899Z,13.80
2022-10-14T07:19:14.183Z,13.80
2022-10-14T07:21:46.550Z,13.80
2022-10-14T07:24:13.758Z,13.80
2022-10-14T07:26:40.706Z,13.90
2022-10-14T07:29:07.934Z,13.90
2022-10-14T07:31:35.418Z,13.80
2022-10-14T07:34:02.821Z,13.90
2022-10-14T07:36:29.839Z,13.90
2022-10-14T07:38:56.900Z,13.90
2022-10-14T07:41:25.365Z,13.90
2022-10-14T07:43:54.921Z,13.90
2022-10-14T07:46:32.435Z,13.90
2022-10-14T07:49:01.891Z,14.00
2022-10-14T07:51:28.859Z,14.00
2022-10-14T07:53:57.690Z,14.00
2022-10-14T07:56:25.355Z,14.00
2022-10-14T07:58:52.740Z,14.00
2022-10-14T08:01:20.049Z,14.10
2022-10-14T08:03:48.387Z,14.10
2022-10-14T08:06:18.483Z,14.10
2022-10-14T08:08:45.545Z,14.10
2022-10-14T08:11:24.165Z,14.20
2022-10-14T08:13:51.916Z,14.20
2022-10-14T08:16:21.558Z,14.20
2022-10-14T08:18:48.636Z,14.20
2022-10-14T08:21:17.140Z,14.20
2022-10-14T08:23:44.627Z,14.20
2022-10-14T08:26:26.600Z,14.20
2022-10-14T08:28:53.977Z,14.20
2022-10-14T08:31:24.022Z,14.20
2022-10-14T08:33:51.312Z,14.20
2022-10-14T08:36:19.142Z,14.30
2022-10-14T08:38:46.517Z,14.30
2022-10-14T08:41:13.683Z,14.30
2022-10-14T08:43:47.104Z,14.30
2022-10-14T08:46:19.367Z,14.30
2022-10-14T08:48:47.975Z,14.30
2022-10-14T08:51:17.646Z,14.30
2022-10-14T08:53:50.476Z,14.30
2022-10-14T08:56:19.618Z,14.30
2022-10-14T08:58:53.636Z,14.40
2022-10-14T09:01:32.395Z,14.40
2022-10-14T09:04:08.260Z,14.40
2022-10-14T09:06:38.836Z,14.40
2022-10-14T09:09:21.129Z,14.50
2022-10-14T09:11:53.875Z,14.50
2022-10-14T09:14:25.218Z,14.50
2022-10-14T09:17:00.118Z,14.50
2022-10-14T09:20:00.112Z,14.50
2022-10-14T09:22:29.106Z,14.50
2022-10-14T09:24:58.064Z,14.50
2022-10-14T09:27:25.754Z,14.50
2022-10-14T09:30:09.398Z,14.50
2022-10-14T09:32:44.531Z,14.60
2022-10-14T09:35:20.538Z,14.60
2022-10-14T09:37:47.641Z,14.60
2022-10-14T09:40:33.695Z,14.60
2022-10-14T09:43:09.888Z,14.70
2022-10-14T09:45:59.428Z,14.70
2022-10-14T09:48:49.310Z,14.80
2022-10-14T09:51:26.806Z,14.80
2022-10-14T09:54:00.000Z,14.80
2022-10-14T09:56:40.647Z,14.80
2022-10-14T09:59:20.905Z,14.80
2022-10-14T10:01:53.354Z,14.80
2022-10-14T10:04:47.612Z,14.80
2022-10-14T10:07:34.848Z,14.80
2022-10-14T10:10:16.236Z,14.80
2022-10-14T10:12:47.067Z,14.90
2022-10-14T10:15:21.328Z,14.90
2022-10-14T10:17:49.666Z,14.80
2022-10-14T10:20:19.757Z,14.90
2022-10-14T10:22:48.231Z,14.90
2022-10-14T10:25:18.764Z,14.90
2022-10-14T10:27:47.852Z,14.90
2022-10-14T10:30:24.451Z,14.90
2022-10-14T10:32:58.750Z,14.90
2022-10-14T10:35:34.040Z,14.90
2022-10-14T10:38:23.289Z,14.90
2022-10-14T10:41:21.935Z,15.00
2022-10-14T10:44:17.937Z,15.00
2022-10-14T10:46:55.209Z,15.00
2022-10-14T10:50:00.008Z,15.00
2022-10-14T10:52:40.981Z,15.00
2022-10-14T10:55:24.228Z,15.00
2022-10-14T10:57:59.355Z,15.00
2022-10-14T11:00:30.160Z,15.10
2022-10-14T11:03:17.976Z,15.10
2022-10-14T11:05:55.441Z,15.10
2022-10-14T11:09:23.219Z,15.10
2022-10-14T11:12:17.841Z,15.10
2022-10-14T11:14:59.855Z,15.10
2022-10-14T11:17:31.187Z,15.10
2022-10-14T11:20:23.512Z,15.10
2022-10-14T11:22:55.371Z,15.20
2022-10-14T11:25:46.263Z,15.10
2022-10-14T11:28:24.589Z,15.10
2022-10-14T11:31:02.613Z,15.20
2022-10-14T11:33:48.379Z,15.20
2022-10-14T11:36:37.337Z,15.30
2022-10-14T11:39:23.105Z,15.30
2022-10-14T11:42:13.941Z,15.30
2022-10-14T11:44:43.385Z,15.30
2022-10-14T11:47:24.893Z,15.30
2022-10-14T11:50:05.364Z,15.40
2022-10-14T11:52:38.081Z,15.30
2022-10-14T11:55:19.406Z,15.30
2022-10-14T11:57:53.545Z,15.40
2022-10-14T12:00:22.542Z,15.50
2022-10-14T12:03:14.809Z,15.40
2022-10-14T12:05:56.502Z,15.40
2022-10-14T12:08:33.138Z,15.40
2022-10-14T12:11:20.457Z,15.40
2022-10-14T12:13:49.549Z,15.60
2022-10-14T12:16:22.746Z,15.50
2022-10-14T12:18:57.260Z,15.60
2022-10-14T12:21:49.725Z,15.60
2022-10-14T12:24:21.726Z,15.60
2022-10-14T12:27:02.160Z,15.70
2022-10-14T12:29:32.686Z,15.80
2022-10-14T12:32:07.833Z,15.80
2022-10-14T12:34:36.037Z,15.70
2022-10-14T12:37:28.750Z,15.70
2022-10-14T12:40:13.366Z,15.70
2022-10-14T12:42:44.031Z,15.70
2022-10-14T12:45:21.223Z,15.70
2022-10-14T12:48:00.935Z,15.70
2022-10-14T12:50:38.724Z,15.60
2022-10-14T12:53:16.116Z,15.60
2022-10-14T12:55:53.537Z,15.60
2022-10-14T12:58:42.328Z,15.60
2022-10-14T13:01:21.992Z,15.60
2022-10-14T13:04:05.644Z,15.60
2022-10-14T13:06:35.894Z,15.60
2022-10-14T13:09:31.196Z,15.60
2022-10-14T13:11:58.171Z,15.60
2022-10-14T13:14:28.189Z,15.60
2022-10-14T13:17:15.731Z,15.50
2022-10-14T13:19:44.602Z,15.50
2022-10-14T13:22:33.125Z,15.50
2022-10-14T13:25:28.644Z,15.60
2022-10-14T13:28:08.433Z,15.60
2022-10-14T13:31:08.494Z,15.50
2022-10-14T13:33:50.672Z,15.60
2022-10-14T13:36:28.817Z,15.60
2022-10-14T13:38:59.374Z,15.60
2022-10-14T13:41:30.744Z,15.70
2022-10-14T13:43:59.514Z,15.80
2022-10-14T13:46:39.511Z,15.80
2022-10-14T13:52:06.109Z,15.90
2022-10-14T13:54:33.364Z,16.00
2022-10-14T13:57:47.764Z,16.10
2022-10-14T14:02:53.342Z,16.00
2022-10-14T14:05:26.399Z,16.10
2022-10-14T14:11:10.974Z,15.80
2022-10-14T14:13:33.674Z,15.80
2022-10-14T14:16:00.977Z,15.90
2022-10-14T14:18:43.170Z,15.90
2022-10-14T14:21:22.738Z,15.90
2022-10-14T14:23:52.053Z,15.90
2022-10-14T14:26:19.970Z,15.90
2022-10-14T14:28:48.686Z,15.90
2022-10-14T14:31:22.251Z,15.90
2022-10-14T14:33:49.309Z,15.80
2022-10-14T14:36:27.574Z,15.90
2022-10-14T14:39:01.163Z,16.00
2022-10-14T14:41:33.100Z,16.00
2022-10-14T14:44:24.459Z,16.10
2022-10-14T14:46:57.956Z,16.20
2022-10-14T14:49:35.308Z,16.30
2022-10-14T14:52:04.723Z,16.30
2022-10-14T14:54:31.770Z,16.20
2022-10-14T14:57:20.131Z,16.10
2022-10-14T15:00:07.002Z,16.20
2022-10-14T15:02:35.139Z,16.20
2022-10-14T15:05:09.392Z,16.10
2022-10-14T15:07:38.262Z,16.20
2022-10-14T15:10:42.024Z,16.10
2022-10-14T15:13:46.608Z,16.00
2022-10-14T15:17:04.818Z,16.00
2022-10-14T15:19:45.400Z,15.90
2022-10-14T15:22:29.708Z,15.90
2022-10-14T15:25:03.388Z,15.90
2022-10-14T15:27:42.823Z,15.90
2022-10-14T15:30:38.006Z,15.80
2022-10-14T15:33:28.010Z,15.70
2022-10-14T15:36:03.536Z,15.70
2022-10-14T15:38:44.723Z,15.70
2022-10-14T15:41:21.283Z,15.70
2022-10-14T15:43:49.435Z,15.60
2022-10-14T15:46:43.922Z,15.60
2022-10-14T15:52:26.863Z,15.60
2022-10-14T15:55:04.182Z,15.60
2022-10-14T15:57:41.156Z,15.60
2022-10-14T16:00:09.670Z,15.50
2022-10-14T16:02:43.679Z,15.50
2022-10-14T16:05:19.785Z,15.50
2022-10-14T16:07:49.961Z,15.50
2022-10-14T16:10:21.388Z,15.50
2022-10-14T16:12:52.000Z,15.50
2022-10-14T16:15:57.490Z,15.40
2022-10-14T16:18:26.450Z,15.40
2022-10-14T16:20:58.818Z,15.40
2022-10-14T16:23:29.740Z,15.40
2022-10-14T16:26:00.635Z,15.30
2022-10-14T16:31:16.312Z,15.20
2022-10-14T16:33:45.759Z,15.20
2022-10-14T16:36:24.668Z,15.10
2022-10-14T16:39:00.452Z,15.10
2022-10-14T16:41:32.169Z,15.00
2022-10-14T16:44:08.722Z,15.00
2022-10-14T16:47:14.180Z,15.00
2022-10-14T16:49:43.950Z,15.00
2022-10-14T16:52:12.130Z,14.80
2022-10-14T16:54:39.405Z,14.80
2022-10-14T16:57:13.619Z,14.80
2022-10-14T16:59:43.711Z,14.80
2022-10-14T17:02:16.227Z,14.70
2022-10-14T17:04:46.722Z,14.70
2022-10-14T17:07:20.911Z,14.70
2022-10-14T17:09:51.345Z,14.70
2022-10-14T17:12:20.295Z,14.60
2022-10-14T17:14:52.518Z,14.50
2022-10-14T17:17:19.791Z,14.50
2022-10-14T17:19:50.830Z,14.50
2022-10-14T17:22:22.292Z,14.40
2022-10-14T17:24:51.503Z,14.40
2022-10-14T17:27:24.082Z,14.40
2022-10-14T17:29:56.011Z,14.40
2022-10-14T17:32:23.903Z,14.40
2022-10-14T17:34:56.523Z,14.30
2022-10-14T17:37:23.991Z,14.30
2022-10-14T17:39:54.964Z,14.20
2022-10-14T17:42:22.844Z,14.30
2022-10-14T17:44:51.232Z,14.30
2022-10-14T17:47:19.620Z,14.30
2022-10-14T17:49:47.685Z,14.20
2022-10-14T17:52:15.189Z,14.20
2022-10-14T17:54:43.521Z,14.20
2022-10-14T17:57:14.509Z,14.10
2022-10-14T17:59:43.426Z,14.10
2022-10-14T18:02:18.791Z,14.10
2022-10-14T18:05:19.779Z,14.10
2022-10-14T18:09:21.149Z,14.00
2022-10-14T18:14:46.263Z,14.00
2022-10-14T18:20:37.913Z,14.00
2022-10-14T18:23:12.880Z,14.00
2022-10-14T18:26:10.978Z,13.90
2022-10-14T18:29:12.925Z,13.90
2022-10-14T18:38:57.413Z,13.70
2022-10-14T18:41:26.105Z,13.70
2022-10-14T18:44:34.693Z,13.70
2022-10-14T18:47:22.803Z,13.60
2022-10-14T18:49:52.532Z,13.70
2022-10-14T18:52:49.076Z,13.60
2022-10-14T18:55:26.183Z,13.50
2022-10-14T18:58:00.266Z,13.50
2022-10-14T19:00:34.206Z,13.50
2022-10-14T19:03:03.871Z,13.50
2022-10-14T19:05:37.998Z,13.50
2022-10-14T19:08:32.006Z,13.40
2022-10-14T19:11:30.956Z,13.40
2022-10-14T19:14:27.130Z,13.40
2022-10-14T19:18:18.613Z,13.40
2022-10-14T19:21:48.475Z,13.30
2022-10-14T19:24:33.541Z,13.20
2022-10-14T19:27:39.564Z,13.20
2022-10-14T19:30:33.752Z,13.20
2022-10-14T19:33:13.584Z,13.20
2022-10-14T19:36:14.502Z,13.20
2022-10-14T19:39:02.371Z,13.10
2022-10-14T19:41:52.859Z,13.10
2022-10-14T19:44:27.920Z,13.10
2022-10-14T19:46:59.128Z,13.00
2022-10-14T19:49:37.271Z,13.00
2022-10-14T19:52:10.951Z,12.90
2022-10-14T19:54:53.120Z,12.90
2022-10-14T19:57:25.760Z,12.90
2022-10-14T20:00:05.606Z,12.90
2022-10-14T20:03:03.355Z,12.90
2022-10-14T20:05:38.100Z,12.80
2022-10-14T20:08:26.685Z,12.80
2022-10-14T20:11:11.715Z,12.80
2022-10-14T20:14:05.257Z,12.80
2022-10-14T20:16:45.486Z,12.80
2022-10-14T20:19:19.369Z,12.70
2022-10-14T20:21:56.790Z,12.70
2022-10-14T20:24:34.315Z,12.70
2022-10-14T20:27:04.594Z,12.70
2022-10-14T20:30:00.579Z,12.70
2022-10-14T20:32:28.379Z,12.70
2022-10-14T20:35:10.460Z,12.70
2022-10-14T20:37:45.629Z,12.70
2022-10-14T20:40:17.649Z,12.70
2022-10-14T20:42:49.991Z,12.70
2022-10-14T20:45:19.266Z,12.70
2022-10-14T20:47:53.527Z,12.60
2022-10-14T20:50:24.570Z,12.70
2022-10-14T20:53:16.286Z,12.70
2022-10-14T20:55:47.329Z,12.60
2022-10-14T20:58:32.659Z,12.60
2022-10-14T21:01:30.567Z,12.60
2022-10-14T21:04:17.928Z,12.60
2022-10-14T21:06:54.718Z,12.60
2022-10-14T21:09:23.265Z,12.60
2022-10-14T21:11:51.183Z,12.60
2022-10-14T21:14:49.797Z,12.60
2022-10-14T21:17:26.467Z,12.60
2022-10-14T21:19:57.742Z,12.60
2022-10-14T21:22:26.010Z,12.60
2022-10-14T21:25:06.037Z,12.60
2022-10-14T21:27:40.944Z,12.60
2022-10-14T21:30:10.726Z,12.60
2022-10-14T21:32:49.329Z,12.60
2022-10-14T21:35:16.854Z,12.50
2022-10-14T21:37:45.059Z,12.60
2022-10-14T21:40:22.481Z,12.60
2022-10-14T21:42:53.591Z,12.70
2022-10-14T21:46:09.627Z,12.60
2022-10-14T21:48:59.305Z,12.60
2022-10-14T21:51:32.678Z,12.60
2022-10-14T21:54:11.680Z,12.70
2022-10-14T21:56:41.912Z,12.70
2022-10-14T21:59:10.717Z,12.60
2022-10-14T22:01:48.617Z,12.70
2022-10-14T22:04:25.545Z,12.60
2022-10-14T22:07:01.337Z,12.60
2022-10-14T22:09:29.082Z,12.60
2022-10-14T22:11:57.186Z,12.60
2022-10-14T22:14:32.182Z,12.60
2022-10-14T22:17:20.299Z,12.60
2022-10-14T22:19:53.339Z,12.60
2022-10-14T22:22:30.458Z,12.60
2022-10-14T22:25:11.183Z,12.60
2022-10-14T22:27:42.141Z,12.60
2022-10-14T22:30:10.424Z,12.60
2022-10-14T22:32:38.370Z,12.60
2022-10-14T22:35:21.397Z,12.60
2022-10-14T22:37:48.954Z,12.60
2022-10-14T22:40:18.549Z,12.60
2022-10-14T22:42:51.359Z,12.60
2022-10-14T22:45:19.218Z,12.60
2022-10-14T22:47:52.698Z,12.60
2022-10-14T22:50:34.806Z,12.50
2022-10-14T22:53:10.143Z,12.60
2022-10-14T22:55:37.381Z,12.50
2022-10-14T23:00:50.780Z,12.50
2022-10-14T23:03:18.059Z,12.50
2022-10-14T23:05:49.031Z,12.40
2022-10-14T23:08:18.108Z,12.40
2022-10-14T23:10:55.756Z,12.40
2022-10-14T23:13:23.716Z,12.40
2022-10-14T23:18:58.859Z,12.30
2022-10-14T23:21:29.461Z,12.30
2022-10-14T23:24:32.765Z,12.30
2022-10-14T23:27:02.832Z,12.30
2022-10-14T23:29:30.380Z,12.30
2022-10-14T23:32:00.653Z,12.30
2022-10-14T23:34:41.012Z,12.30
2022-10-14T23:37:08.407Z,12.30
2022-10-14T23:39:46.026Z,12.30
2022-10-14T23:42:22.471Z,12.30
2022-10-14T23:44:54.810Z,12.30
2022-10-14T23:47:23.584Z,12.30
2022-10-14T23:49:52.385Z,12.30
2022-10-14T23:52:28.962Z,12.30
2022-10-14T23:57:36.950Z,12.40
